createdAt,value
2022-09-20T00:01:25.961Z,145260.91
2022-09-20T00:03:53.627Z,145251.09
2022-09-20T00:06:21.893Z,145240.19
2022-09-20T00:08:49.172Z,145242.66
2022-09-20T00:11:20.713Z,145235.34
2022-09-20T00:13:48.473Z,145243.84
2022-09-20T00:16:16.946Z,145270.59
2022-09-20T00:18:44.010Z,145275.44
2022-09-20T00:21:18.504Z,145262.09
2022-09-20T00:23:45.547Z,145247.50
2022-09-20T00:26:13.850Z,145232.91
2022-09-20T00:28:41.346Z,145230.50
2022-09-20T00:31:08.242Z,145232.91
2022-09-20T00:33:53.866Z,145240.19
2022-09-20T00:36:20.689Z,145241.41
2022-09-20T00:38:47.493Z,145235.34
2022-09-20T00:41:14.614Z,145232.91
2022-09-20T00:43:43.029Z,145232.91
2022-09-20T00:46:29.748Z,145228.06
2022-09-20T00:49:00.685Z,145220.78
2022-09-20T00:51:33.656Z,145207.44
2022-09-20T00:54:03.159Z,145184.41
2022-09-20T00:56:32.770Z,145186.78
2022-09-20T00:59:11.683Z,145195.28
2022-09-20T01:01:38.718Z,145190.44
2022-09-20T01:04:05.878Z,145177.09
2022-09-20T01:06:33.822Z,145133.44
2022-09-20T01:09:03.014Z,145174.69
2022-09-20T01:11:30.896Z,145168.59
2022-09-20T01:13:57.716Z,145167.41
2022-09-20T01:16:26.031Z,145141.91
2022-09-20T01:18:53.066Z,145133.44
2022-09-20T01:21:20.338Z,145116.44
2022-09-20T01:23:50.198Z,145110.41
2022-09-20T01:26:17.098Z,145106.75
2022-09-20T01:28:46.538Z,145106.75
2022-09-20T01:31:18.533Z,145099.47
2022-09-20T01:34:00.403Z,145082.47
2022-09-20T01:36:36.309Z,145065.50
2022-09-20T01:39:06.163Z,145053.38
2022-09-20T01:41:55.066Z,145052.16
2022-09-20T01:44:31.017Z,145048.53
2022-09-20T01:47:05.591Z,145046.06
2022-09-20T01:49:50.450Z,145040.03
2022-09-20T01:52:17.251Z,145040.03
2022-09-20T01:54:59.348Z,145060.66
2022-09-20T01:57:46.061Z,145048.53
2022-09-20T02:00:15.317Z,145067.91
2022-09-20T02:02:53.893Z,145099.47
2022-09-20T02:05:32.957Z,145094.59
2022-09-20T02:08:05.702Z,145095.81
2022-09-20T02:10:47.611Z,145080.06
2022-09-20T02:13:14.648Z,145065.50
2022-09-20T02:15:56.511Z,145059.41
2022-09-20T02:18:32.216Z,145065.50
2022-09-20T02:21:03.654Z,145050.94
2022-09-20T02:23:56.334Z,145046.06
2022-09-20T02:26:23.120Z,145029.13
2022-09-20T02:28:49.976Z,145010.94
2022-09-20T02:31:32.957Z,145010.94
2022-09-20T02:34:09.046Z,145017.00
2022-09-20T02:36:53.883Z,145017.00
2022-09-20T02:39:22.205Z,145026.69
2022-09-20T02:41:51.850Z,145047.31
2022-09-20T02:44:24.989Z,145058.22
2022-09-20T02:46:59.025Z,145076.41
2022-09-20T02:49:28.890Z,145089.75
2022-09-20T02:51:55.678Z,145077.63
2022-09-20T02:54:22.923Z,145078.88
2022-09-20T02:56:55.665Z,145071.56
2022-09-20T02:59:25.292Z,145067.91
2022-09-20T03:02:11.851Z,145097.06
2022-09-20T03:04:42.527Z,145117.66
2022-09-20T03:07:19.522Z,145133.44
2022-09-20T03:10:05.197Z,145124.94
2022-09-20T03:12:52.916Z,145120.09
2022-09-20T03:15:45.829Z,145114.00
2022-09-20T03:18:16.711Z,145107.97
2022-09-20T03:20:58.062Z,145101.91
2022-09-20T03:23:44.660Z,145089.75
2022-09-20T03:26:30.284Z,145067.91
2022-09-20T03:29:00.919Z,145065.50
2022-09-20T03:31:42.986Z,145070.38
2022-09-20T03:34:32.722Z,145063.06
2022-09-20T03:37:22.988Z,145064.28
2022-09-20T03:40:01.597Z,145071.56
2022-09-20T03:42:29.511Z,145072.75
2022-09-20T03:45:15.082Z,145072.75
2022-09-20T03:47:42.765Z,145080.06
2022-09-20T03:50:12.366Z,145065.50
2022-09-20T03:52:51.018Z,145087.31
2022-09-20T03:55:17.808Z,145087.31
2022-09-20T03:57:53.602Z,145087.31
2022-09-20T04:00:23.440Z,145088.56
2022-09-20T04:03:08.997Z,145089.75
2022-09-20T04:05:56.019Z,145087.31
2022-09-20T04:08:40.196Z,145092.22
2022-09-20T04:11:15.650Z,145123.69
2022-09-20T04:13:47.734Z,145118.84
2022-09-20T04:16:33.522Z,145122.50
2022-09-20T04:19:19.317Z,145117.66
2022-09-20T04:21:59.276Z,145109.16
2022-09-20T04:24:40.166Z,145094.59
2022-09-20T04:27:30.003Z,145084.91
2022-09-20T04:30:18.568Z,145081.25
2022-09-20T04:32:54.821Z,145075.22
2022-09-20T04:35:46.189Z,145055.81
2022-09-20T04:38:16.351Z,145052.16
2022-09-20T04:40:43.180Z,145053.38
2022-09-20T04:43:28.953Z,145043.69
2022-09-20T04:46:01.973Z,145041.22
2022-09-20T04:48:47.383Z,145047.31
2022-09-20T04:51:16.989Z,145041.22
2022-09-20T04:53:43.904Z,145038.81
2022-09-20T04:56:38.017Z,145035.19
2022-09-20T04:59:08.089Z,145067.91
2022-09-20T05:01:59.073Z,145052.16
2022-09-20T05:04:28.677Z,145046.06
2022-09-20T05:07:08.631Z,145058.22
2022-09-20T05:09:54.420Z,145059.41
2022-09-20T05:12:27.161Z,145061.88
2022-09-20T05:14:57.066Z,145053.38
2022-09-20T05:17:32.769Z,145063.06
2022-09-20T05:20:18.936Z,145057.03
2022-09-20T05:23:12.006Z,145043.69
2022-09-20T05:25:58.218Z,145060.66
2022-09-20T05:28:38.835Z,145058.22
2022-09-20T05:31:10.205Z,145053.38
2022-09-20T05:33:44.883Z,145063.06
2022-09-20T05:36:12.184Z,145065.50
2022-09-20T05:39:02.772Z,145052.16
2022-09-20T05:41:31.864Z,145038.81
2022-09-20T05:44:06.040Z,145050.94
2022-09-20T05:46:53.726Z,145055.81
2022-09-20T05:49:39.848Z,145059.41
2022-09-20T05:52:06.837Z,145101.91
2022-09-20T05:54:39.449Z,145099.47
2022-09-20T05:57:22.275Z,145088.56
2022-09-20T05:59:59.188Z,145070.38
2022-09-20T06:02:42.750Z,145077.63
2022-09-20T06:05:17.087Z,145080.06
2022-09-20T06:07:45.682Z,145090.97
2022-09-20T06:10:19.865Z,145128.59
2022-09-20T06:12:55.742Z,145138.31
2022-09-20T06:15:36.232Z,145129.81
2022-09-20T06:18:11.229Z,145007.28
2022-09-20T06:21:01.974Z,145150.41
2022-09-20T06:23:30.801Z,145132.19
2022-09-20T06:26:01.869Z,145150.41
2022-09-20T06:28:31.022Z,145196.50
2022-09-20T06:30:58.017Z,145166.19
2022-09-20T06:33:25.785Z,145196.50
2022-09-20T06:35:59.049Z,145225.66
2022-09-20T06:38:59.163Z,145274.25
2022-09-20T06:41:28.015Z,145283.97
2022-09-20T06:43:58.545Z,145296.06
2022-09-20T06:46:28.105Z,145347.09
2022-09-20T06:48:55.711Z,145300.91
2022-09-20T06:51:23.434Z,145322.78
2022-09-20T06:53:50.496Z,145327.63
2022-09-20T06:56:19.643Z,145344.63
2022-09-20T06:58:46.751Z,145381.06
2022-09-20T07:01:13.755Z,145402.91
2022-09-20T07:03:41.161Z,145429.63
2022-09-20T07:06:08.762Z,145452.69
2022-09-20T07:08:36.324Z,145470.91
2022-09-20T07:11:08.910Z,145502.50
2022-09-20T07:13:36.505Z,145530.41
2022-09-20T07:16:04.707Z,145563.22
2022-09-20T07:18:33.425Z,145604.50
2022-09-20T07:21:00.689Z,145628.78
2022-09-20T07:23:29.594Z,145621.53
2022-09-20T07:26:01.062Z,145558.34
2022-09-20T07:28:28.865Z,145594.78
2022-09-20T07:30:55.700Z,145648.28
2022-09-20T07:33:24.875Z,145690.78
2022-09-20T07:35:55.195Z,145761.28
2022-09-20T07:38:22.681Z,145816.00
2022-09-20T07:41:00.608Z,145893.78
2022-09-20T07:43:27.710Z,145978.94
2022-09-20T07:45:56.051Z,146023.94
2022-09-20T07:48:25.796Z,145983.81
2022-09-20T07:50:53.854Z,145961.91
2022-09-20T07:53:21.034Z,145901.09
2022-09-20T07:55:57.904Z,145876.81
2022-09-20T07:58:24.775Z,145923.00
2022-09-20T08:00:55.272Z,146004.50
2022-09-20T08:03:22.455Z,146078.72
2022-09-20T08:05:51.950Z,146137.13
2022-09-20T08:08:19.209Z,146232.06
2022-09-20T08:10:46.110Z,146211.34
2022-09-20T08:16:01.226Z,146090.91
2022-09-20T08:18:28.313Z,146099.44
2022-09-20T08:20:55.429Z,146008.16
2022-09-20T08:23:24.058Z,146047.06
2022-09-20T08:25:51.074Z,146021.50
2022-09-20T08:28:17.941Z,145983.81
2022-09-20T08:30:44.764Z,145997.19
2022-09-20T08:33:12.868Z,146006.91
2022-09-20T08:35:39.744Z,146062.91
2022-09-20T08:40:59.681Z,146047.06
2022-09-20T08:43:28.744Z,146117.69
2022-09-20T08:45:58.094Z,146154.19
2022-09-20T08:48:28.359Z,146194.31
2022-09-20T08:50:56.049Z,146173.66
2022-09-20T08:53:22.864Z,146197.97
2022-09-20T08:55:49.694Z,146260.06
2022-09-20T08:58:16.874Z,146363.50
2022-09-20T09:00:46.370Z,146440.28
2022-09-20T09:03:14.278Z,146490.22
2022-09-20T09:05:44.016Z,146451.25
2022-09-20T09:08:16.597Z,146351.34
2022-09-20T09:10:45.738Z,146266.13
2022-09-20T09:13:21.326Z,146268.59
2022-09-20T09:15:52.948Z,146283.19
2022-09-20T09:18:19.983Z,146275.84
2022-09-20T09:20:47.281Z,146279.53
2022-09-20T09:23:26.037Z,146378.16
2022-09-20T09:25:54.366Z,146437.88
2022-09-20T09:28:25.505Z,146475.59
2022-09-20T09:30:52.379Z,146499.94
2022-09-20T09:33:29.638Z,146490.22
2022-09-20T09:36:04.760Z,146426.88
2022-09-20T09:38:38.793Z,146422.00
2022-09-20T09:41:08.432Z,146320.91
2022-09-20T09:43:37.223Z,146309.97
2022-09-20T09:46:18.420Z,146309.97
2022-09-20T09:48:49.730Z,146277.06
2022-09-20T09:51:18.704Z,146271.00
2022-09-20T09:53:46.239Z,146257.59
2022-09-20T09:56:29.263Z,146219.88
2022-09-20T09:59:20.202Z,146202.84
2022-09-20T10:02:12.928Z,146228.41
2022-09-20T10:04:39.799Z,146312.38
2022-09-20T10:07:25.265Z,146422.00
2022-09-20T10:09:54.801Z,146524.34
2022-09-20T10:12:28.489Z,146590.09
2022-09-20T10:15:14.336Z,146612.03
2022-09-20T10:17:47.580Z,146601.06
2022-09-20T10:20:28.122Z,146693.69
2022-09-20T10:23:39.293Z,146752.22
2022-09-20T10:26:25.467Z,146781.50
2022-09-20T10:28:59.005Z,146780.28
2022-09-20T10:31:56.134Z,146687.56
2022-09-20T10:34:41.862Z,146634.00
2022-09-20T10:37:21.497Z,146577.91
2022-09-20T10:39:53.333Z,146588.91
2022-09-20T10:43:03.341Z,146619.34
2022-09-20T10:46:14.483Z,146594.97
2022-09-20T10:48:48.509Z,146612.03
2022-09-20T10:51:29.420Z,146638.84
2022-09-20T10:53:56.239Z,146680.28
2022-09-20T10:56:27.486Z,146697.31
2022-09-20T10:59:27.768Z,146709.50
2022-09-20T11:02:18.859Z,146736.38
2022-09-20T11:05:01.082Z,146709.50
2022-09-20T11:07:44.958Z,146708.31
2022-09-20T11:10:24.443Z,146760.75
2022-09-20T11:12:53.660Z,146751.00
2022-09-20T11:15:51.947Z,146694.91
2022-09-20T11:18:24.161Z,146690.03
2022-09-20T11:20:56.209Z,146683.94
2022-09-20T11:23:44.050Z,146790.03
2022-09-20T11:26:14.596Z,146887.53
2022-09-20T11:28:47.711Z,146974.13
2022-09-20T11:31:14.498Z,146943.63
2022-09-20T11:33:52.234Z,146944.88
2022-09-20T11:36:24.030Z,146942.41
2022-09-20T11:39:00.011Z,146990.00
2022-09-20T11:41:28.234Z,146950.97
2022-09-20T11:43:57.245Z,146963.16
2022-09-20T11:46:27.840Z,146940.00
2022-09-20T11:49:07.727Z,146931.47
2022-09-20T11:51:52.882Z,146936.34
2022-09-20T11:54:26.615Z,146888.75
2022-09-20T11:56:56.527Z,146921.72
2022-09-20T11:59:43.242Z,146943.63
2022-09-20T12:02:25.469Z,146980.22
2022-09-20T12:04:53.411Z,147026.59
2022-09-20T12:07:24.183Z,147052.25
2022-09-20T12:10:01.608Z,147085.16
2022-09-20T12:12:28.468Z,147119.34
2022-09-20T12:14:56.264Z,147129.09
2022-09-20T12:17:41.791Z,147109.59
2022-09-20T12:20:27.448Z,147112.00
2022-09-20T12:23:17.221Z,147141.28
2022-09-20T12:26:00.479Z,147008.31
2022-09-20T12:28:39.008Z,146946.09
2022-09-20T12:31:32.050Z,146936.34
2022-09-20T12:34:02.041Z,146914.38
2022-09-20T12:36:30.311Z,146924.13
2022-09-20T12:39:20.697Z,146926.59
2022-09-20T12:42:02.493Z,146990.00
2022-09-20T12:44:35.534Z,146970.47
2022-09-20T12:47:05.957Z,147002.22
2022-09-20T12:49:54.631Z,146972.91
2022-09-20T12:52:58.739Z,147004.69
2022-09-20T12:55:25.912Z,147011.97
2022-09-20T12:58:16.886Z,146943.63
2022-09-20T13:00:46.618Z,147004.69
2022-09-20T13:03:34.670Z,146968.06
2022-09-20T13:06:05.625Z,147008.31
2022-09-20T13:08:32.928Z,146971.66
2022-09-20T13:11:01.822Z,146977.78
2022-09-20T13:13:44.440Z,147007.09
2022-09-20T13:16:30.315Z,147001.00
2022-09-20T13:19:06.722Z,147107.13
2022-09-20T13:21:34.813Z,147041.28
2022-09-20T13:24:02.258Z,147092.50
2022-09-20T13:26:33.005Z,147070.53
2022-09-20T13:29:00.857Z,147073.00
2022-09-20T13:31:29.386Z,147085.16
2022-09-20T13:34:12.542Z,147085.16
2022-09-20T13:36:39.665Z,147075.41
2022-09-20T13:39:07.271Z,147136.41
2022-09-20T13:41:35.620Z,147029.06
2022-09-20T13:44:02.662Z,147140.06
2022-09-20T13:46:30.819Z,147121.78
2022-09-20T13:49:14.726Z,147094.91
2022-09-20T13:51:41.538Z,147060.78
2022-09-20T13:54:19.249Z,147060.78
2022-09-20T13:56:46.165Z,147019.31
2022-09-20T13:59:19.223Z,147015.66
2022-09-20T14:01:54.360Z,147015.66
2022-09-20T14:04:25.566Z,147024.19
2022-09-20T14:06:53.643Z,147069.31
2022-09-20T14:09:23.560Z,147082.75
2022-09-20T14:11:50.839Z,147031.47
2022-09-20T14:14:22.204Z,147060.78
2022-09-20T14:16:50.045Z,147053.44
2022-09-20T14:19:18.710Z,146977.78
2022-09-20T14:21:45.954Z,146964.38
2022-09-20T14:24:16.297Z,146987.59
2022-09-20T14:26:59.312Z,146997.34
2022-09-20T14:29:40.026Z,146992.47
2022-09-20T14:32:18.737Z,146997.34
2022-09-20T14:34:46.830Z,147002.22
2022-09-20T14:37:17.944Z,146968.06
2022-09-20T14:39:54.000Z,146970.47
2022-09-20T14:42:33.165Z,146982.69
2022-09-20T14:45:00.118Z,146980.22
2022-09-20T14:47:28.348Z,147019.31
2022-09-20T14:49:55.715Z,147041.28
2022-09-20T14:52:25.364Z,147088.84
2022-09-20T14:55:03.390Z,147079.09
2022-09-20T14:57:32.135Z,147092.50
2022-09-20T15:00:04.402Z,147058.31
2022-09-20T15:02:35.026Z,147011.97
2022-09-20T15:05:02.171Z,147046.16
2022-09-20T15:07:29.330Z,146983.88
2022-09-20T15:09:56.157Z,146968.06
2022-09-20T15:12:23.043Z,146941.22
2022-09-20T15:14:49.922Z,146918.03
2022-09-20T15:17:18.467Z,146909.50
2022-09-20T15:19:49.185Z,146892.41
2022-09-20T15:22:16.005Z,146843.63
2022-09-20T15:24:43.262Z,146790.03
2022-09-20T15:27:13.087Z,146772.94
2022-09-20T15:29:39.889Z,146770.50
2022-09-20T15:32:06.827Z,146748.59
2022-09-20T15:34:33.675Z,146716.91
2022-09-20T15:37:00.510Z,146725.44
2022-09-20T15:39:27.937Z,146764.41
2022-09-20T15:41:54.756Z,146797.31
2022-09-20T15:44:21.992Z,146824.13
2022-09-20T15:46:50.219Z,146848.56
2022-09-20T15:49:17.077Z,146887.53
2022-09-20T15:51:43.895Z,146890.00
2022-09-20T15:54:12.713Z,146824.13
2022-09-20T15:56:42.246Z,146846.09
2022-09-20T15:59:10.159Z,146809.53
2022-09-20T16:01:39.580Z,146792.44
2022-09-20T16:04:07.073Z,146921.72
2022-09-20T16:06:34.170Z,146888.75
2022-09-20T16:09:00.983Z,146863.19
2022-09-20T16:11:28.055Z,146865.59
2022-09-20T16:13:55.976Z,146819.25
2022-09-20T16:16:22.947Z,146835.13
2022-09-20T16:19:08.309Z,146803.44
2022-09-20T16:21:37.244Z,146785.16
2022-09-20T16:24:05.469Z,146765.63
2022-09-20T16:26:34.424Z,146747.34
2022-09-20T16:29:02.438Z,146721.75
2022-09-20T16:31:34.711Z,146712.03
2022-09-20T16:34:03.960Z,146680.28
2022-09-20T16:36:31.985Z,146682.69
2022-09-20T16:38:59.520Z,146648.59
2022-09-20T16:41:27.061Z,146614.47
2022-09-20T16:43:54.329Z,146531.63
2022-09-20T16:46:22.137Z,146587.66
2022-09-20T16:48:52.982Z,146558.44
2022-09-20T16:51:29.701Z,146497.53
2022-09-20T16:53:56.501Z,146519.47
2022-09-20T16:56:25.277Z,146467.06
2022-09-20T16:58:52.797Z,146419.59
2022-09-20T17:01:19.721Z,146400.03
2022-09-20T17:03:47.065Z,146365.97
2022-09-20T17:06:15.677Z,146344.03
2022-09-20T17:08:44.729Z,146320.91
2022-09-20T17:11:14.989Z,146297.78
2022-09-20T17:13:42.852Z,146255.19
2022-09-20T17:16:13.995Z,146251.53
2022-09-20T17:18:43.900Z,146239.34
2022-09-20T17:21:13.699Z,146224.75
2022-09-20T17:23:50.055Z,146190.69
2022-09-20T17:26:19.117Z,146188.25
2022-09-20T17:28:46.823Z,146149.28
2022-09-20T17:31:15.604Z,146150.53
2022-09-20T17:33:43.042Z,146124.97
2022-09-20T17:36:13.014Z,146133.47
2022-09-20T17:38:39.900Z,146103.06
2022-09-20T17:41:11.040Z,146083.59
2022-09-20T17:43:38.011Z,146060.44
2022-09-20T17:46:06.260Z,146067.75
2022-09-20T17:48:36.578Z,146023.94
2022-09-20T17:51:03.682Z,146021.50
2022-09-20T17:53:32.190Z,146005.69
2022-09-20T17:56:00.219Z,145980.13
2022-09-20T17:58:27.597Z,145968.00
2022-09-20T18:00:58.483Z,145957.03
2022-09-20T18:03:25.345Z,145923.00
2022-09-20T18:05:52.815Z,145920.56
2022-09-20T18:08:19.762Z,145901.09
2022-09-20T18:10:56.712Z,145879.22
2022-09-20T18:13:23.566Z,145878.00
2022-09-20T18:15:50.378Z,145867.09
2022-09-20T18:18:17.507Z,145864.63
2022-09-20T18:20:44.453Z,145871.94
2022-09-20T18:23:11.667Z,145860.97
2022-09-20T18:25:57.226Z,145867.09
2022-09-20T18:28:24.210Z,145840.34
2022-09-20T18:31:17.812Z,145803.88
2022-09-20T18:33:44.983Z,145820.84
2022-09-20T18:36:11.899Z,145844.00
2022-09-20T18:38:39.202Z,145860.97
2022-09-20T18:41:06.165Z,145871.94
2022-09-20T18:43:33.322Z,145846.41
2022-09-20T18:46:00.163Z,145825.75
2022-09-20T18:48:32.136Z,145823.31
2022-09-20T18:51:03.093Z,145833.03
2022-09-20T18:53:31.418Z,145837.88
2022-09-20T18:56:17.042Z,145819.66
2022-09-20T18:58:44.910Z,145811.13
2022-09-20T19:01:27.237Z,145808.72
2022-09-20T19:04:06.139Z,145816.00
2022-09-20T19:06:41.513Z,145854.91
2022-09-20T19:09:12.942Z,145873.16
2022-09-20T19:11:43.699Z,145854.91
2022-09-20T19:14:16.875Z,145826.97
2022-09-20T19:16:45.246Z,145775.91
2022-09-20T19:19:32.087Z,145747.97
2022-09-20T19:22:06.291Z,145738.19
2022-09-20T19:24:44.969Z,145723.63
2022-09-20T19:27:12.702Z,145711.50
2022-09-20T19:29:40.177Z,145726.09
2022-09-20T19:32:11.328Z,145724.84
2022-09-20T19:34:42.182Z,145737.00
2022-09-20T19:37:08.978Z,145735.78
2022-09-20T19:39:39.173Z,145704.19
2022-09-20T19:42:24.451Z,145709.06
2022-09-20T19:45:13.611Z,145703.00
2022-09-20T19:47:58.940Z,145710.25
2022-09-20T19:50:29.566Z,145723.63
2022-09-20T19:52:56.460Z,145727.28
2022-09-20T19:55:23.503Z,145738.19
2022-09-20T19:57:50.957Z,145735.78
2022-09-20T20:00:18.947Z,145733.34
2022-09-20T20:02:46.167Z,145750.38
2022-09-20T20:05:14.052Z,145716.38
2022-09-20T20:07:40.833Z,145667.69
2022-09-20T20:10:28.826Z,145657.97
2022-09-20T20:13:02.967Z,145660.38
2022-09-20T20:15:37.662Z,145675.00
2022-09-20T20:18:22.421Z,145675.00
2022-09-20T20:20:50.217Z,145700.53
2022-09-20T20:23:29.389Z,145691.97
2022-09-20T20:26:10.022Z,145657.97
2022-09-20T20:28:37.879Z,145645.81
2022-09-20T20:31:04.856Z,145655.53
2022-09-20T20:33:32.837Z,145655.53
2022-09-20T20:36:00.582Z,145611.81
2022-09-20T20:38:28.757Z,145580.22
2022-09-20T20:41:04.352Z,145577.78
2022-09-20T20:43:35.827Z,145548.66
2022-09-20T20:46:09.432Z,145537.69
2022-09-20T20:48:36.837Z,145538.94
2022-09-20T20:51:09.406Z,145527.97
2022-09-20T20:53:40.222Z,145498.84
2022-09-20T20:56:21.201Z,145509.75
2022-09-20T20:58:48.697Z,145504.91
2022-09-20T21:01:19.326Z,145492.78
2022-09-20T21:03:47.946Z,145470.91
2022-09-20T21:06:15.562Z,145444.19
2022-09-20T21:08:48.867Z,145452.69
2022-09-20T21:11:18.598Z,145439.34
2022-09-20T21:13:48.236Z,145502.50
2022-09-20T21:16:17.000Z,145475.78
2022-09-20T21:18:44.695Z,145504.91
2022-09-20T21:21:20.338Z,145495.19
2022-09-20T21:23:51.335Z,145449.03
2022-09-20T21:26:19.338Z,145439.34
2022-09-20T21:28:50.830Z,145466.06
2022-09-20T21:31:18.522Z,145484.28
2022-09-20T21:33:45.401Z,145463.63
2022-09-20T21:36:13.266Z,145462.41
2022-09-20T21:38:40.986Z,145424.78
2022-09-20T21:41:10.561Z,145415.03
2022-09-20T21:43:40.309Z,145415.03
2022-09-20T21:46:20.127Z,145398.06
2022-09-20T21:48:47.755Z,145366.50
2022-09-20T21:51:16.164Z,145368.91
2022-09-20T21:53:43.034Z,145368.91
2022-09-20T21:56:11.379Z,145361.63
2022-09-20T21:58:41.339Z,145271.81
2022-09-20T22:01:11.463Z,145349.47
2022-09-20T22:03:40.001Z,145342.19
2022-09-20T22:06:11.101Z,145350.69
2022-09-20T22:08:39.221Z,145327.63
2022-09-20T22:11:10.235Z,145320.38
2022-09-20T22:13:41.481Z,145334.94
2022-09-20T22:16:10.250Z,145356.78
2022-09-20T22:18:38.633Z,145344.63
2022-09-20T22:21:07.118Z,145364.03
2022-09-20T22:23:34.748Z,145333.72
2022-09-20T22:26:03.246Z,145334.94
2022-09-20T22:28:30.096Z,145323.97
2022-09-20T22:31:01.954Z,145351.94
2022-09-20T22:33:28.854Z,145325.22
2022-09-20T22:35:55.624Z,145323.97
2022-09-20T22:38:22.689Z,145321.56
2022-09-20T22:40:56.673Z,145305.78
2022-09-20T22:43:23.646Z,145291.22
2022-09-20T22:45:51.260Z,145293.66
2022-09-20T22:48:18.088Z,145298.50
2022-09-20T22:50:44.926Z,145283.97
2022-09-20T22:53:12.159Z,145271.81
2022-09-20T22:55:39.052Z,145262.09
2022-09-20T22:58:05.922Z,145259.66
2022-09-20T23:00:32.724Z,145245.06
2022-09-20T23:02:59.716Z,145228.06
2022-09-20T23:05:26.727Z,145205.00
2022-09-20T23:07:53.697Z,145203.78
2022-09-20T23:10:20.680Z,145190.44
2022-09-20T23:12:49.859Z,145206.25
2022-09-20T23:15:16.778Z,145195.28
2022-09-20T23:17:43.613Z,145189.25
2022-09-20T23:20:10.399Z,145183.19
2022-09-20T23:22:37.221Z,145173.44
2022-09-20T23:25:04.179Z,145162.53
2022-09-20T23:27:31.058Z,145151.66
2022-09-20T23:29:57.863Z,145150.41
2022-09-20T23:32:25.531Z,145128.59
2022-09-20T23:34:52.452Z,145111.59
2022-09-20T23:37:19.285Z,145121.31
2022-09-20T23:39:46.461Z,145114.00
2022-09-20T23:42:13.242Z,145132.19
2022-09-20T23:44:40.061Z,145127.34
2022-09-20T23:47:06.836Z,145106.75
2022-09-20T23:49:33.627Z,145103.09
2022-09-20T23:52:00.561Z,145107.97
2022-09-20T23:54:27.569Z,145101.91
2022-09-20T23:56:54.505Z,145084.91
2022-09-20T23:59:21.289Z,145090.97
